Terminal Aerodrome Forecast
Issued by NWS

Home | Current Version | Previous Version | Text Only | Print | Product List | Glossary On
Versions: 1 2 3 4 5 6 7 8 9 10 11 12 13 14 15 16 17 18
013
FTUS45 KTFX 230525
TAFHLN
TAF
KHLN 230525Z 2306/2406 VRB06KT P6SM OVC050
      TEMPO 2306/2309 3SM -SN BR OVC020
     FM231900 VRB06KT 3SM -SN BR SCT005 OVC030=

USA.gov is the U.S. government's official web portal to all federal, state and local government web resources and services.